Tusimice, Czech Republic

10:19 PM CEST on May 29, 2015 (GMT +0200)
Kadan, Czech republic | | Change Station
CLOSE
Current Station
Personal Weather Station
Location: ECOdate, Kadan, USTECKY KRAJ
Elevation: 1033 ft
Nearby Weather Stations

Elev 1033 ft 50.38 °N, 13.26 °E | Updated 48 seconds ago

Overcast
Overcast
58.3 °F
Feels Like 58.3 °F
N
0.9
Wind Variable Wind from SSW
Gusts 3.1 mph

Today
High -- | Low -- °F
--% Chance of Precip.
Yesterday
High -- | Low -- °F
Precip. -- in
5:03 AM 9:05 PM
Waxing Gibbous, 85% visible
Pressure 29.83 in
Visibility 6.2 miles
Clouds Scattered Clouds 1600 ft
Mostly Cloudy 2300 ft
Mostly Cloudy 6000 ft
Dew Point 47 °F
Humidity 67%
Rainfall 0.00 in
Snow Depth Not available.
UV 0 out of 12
Pollen Not available.
Air Quality Not available.
Flu Activity Not available.
SPECI LKLN 292010Z AUTO 05004KT 300V080 9999 -RA SCT016 BKN023 BKN060 12/11 Q1010 RERA

More Conditions Fewer Conditions

Pressure 29.83 in
Visibility 6.2 miles
Clouds Scattered Clouds 1600 ft
Mostly Cloudy 2300 ft
Mostly Cloudy 6000 ft
Dew Point 47 °F
Humidity 67%
Rainfall 0.00 in
Snow Depth Not available.
UV 0 out of 12
Pollen Not available.
Air Quality Not available.
Flu Activity Not available.
SPECI LKLN 292010Z AUTO 05004KT 300V080 9999 -RA SCT016 BKN023 BKN060 12/11 Q1010 RERA

More Conditions Fewer Conditions

10-Day Weather Forecast

Almanac

Astronomy

May. 29, 2015 Rise Set
Actual Time
Civil Twilight
Nautical Twilight
Astronomical Twilight
Moon
Length of Visible Light
Length of Day
Tomorrow will be .
, % of the Moon is Illuminated

Today's Extremes

Country Highs Country Lows

Community

WunderPhotos

Upload Photos

1,825,331 photos uploaded!

WunderBlogs® & News

Nearby

Air Quality

  Air Quality AQ Index Pollutant
Not available.

Snow Depth

Station Depth Elevation

Earthquake Activity

City Distance Mag. Time & Date
Minimum magnitude displayed is 2.5.

Coastal Water Temperatures

Place Temperature

Stations

Nearby Weather Stations

Station Location Temp. Windchill Dew Point Humidity Wind Precip. Elev Updated Type